createdAt,value
2022-09-17T00:00:28.188Z,12.82
2022-09-17T00:03:14.144Z,9.60
2022-09-17T00:06:07.478Z,14.35
2022-09-17T00:08:54.016Z,14.25
2022-09-17T00:11:42.157Z,15.70
2022-09-17T00:14:28.410Z,11.98
2022-09-17T00:17:14.412Z,13.10
2022-09-17T00:20:00.295Z,17.02
2022-09-17T00:22:46.144Z,12.27
2022-09-17T00:25:32.088Z,13.52
2022-09-17T00:28:18.238Z,15.20
2022-09-17T00:31:09.478Z,15.20
2022-09-17T00:33:55.576Z,13.60
2022-09-17T00:36:41.956Z,14.07
2022-09-17T00:39:28.100Z,14.18
2022-09-17T00:42:14.848Z,17.67
2022-09-17T00:45:01.455Z,13.13
2022-09-17T00:47:59.002Z,18.30
2022-09-17T00:50:45.199Z,13.57
2022-09-17T00:53:31.666Z,17.70
2022-09-17T00:56:23.308Z,13.15
2022-09-17T00:59:09.862Z,14.40
2022-09-17T01:01:55.995Z,16.02
2022-09-17T01:04:42.970Z,16.73
2022-09-17T01:07:42.520Z,17.00
2022-09-17T01:10:46.933Z,17.63
2022-09-17T01:13:54.536Z,15.57
2022-09-17T01:17:03.339Z,17.08
2022-09-17T01:20:09.267Z,18.33
2022-09-17T01:23:37.771Z,11.65
2022-09-17T01:26:32.800Z,16.05
2022-09-17T01:29:24.586Z,15.00
2022-09-17T01:32:20.665Z,14.32
2022-09-17T01:35:13.474Z,18.80
2022-09-17T01:38:05.412Z,11.75
2022-09-17T01:40:54.719Z,14.80
2022-09-17T01:44:09.841Z,14.13
2022-09-17T01:47:11.061Z,14.38
2022-09-17T01:50:11.906Z,11.57
2022-09-17T01:52:58.373Z,13.00
2022-09-17T01:55:45.939Z,12.65
2022-09-17T01:58:35.602Z,11.35
2022-09-17T02:01:22.320Z,10.65
2022-09-17T02:04:13.715Z,12.32
2022-09-17T02:07:04.720Z,14.07
2022-09-17T02:09:57.551Z,12.02
2022-09-17T02:12:47.261Z,13.68
2022-09-17T02:15:37.830Z,10.95
2022-09-17T02:18:28.729Z,10.32
2022-09-17T02:21:26.864Z,8.13
2022-09-17T02:24:31.374Z,12.75
2022-09-17T02:27:25.090Z,10.05
2022-09-17T02:30:11.154Z,18.50
2022-09-17T02:32:57.413Z,13.93
2022-09-17T02:35:44.304Z,6.15
2022-09-17T02:38:31.129Z,12.02
2022-09-17T02:41:21.017Z,9.25
2022-09-17T02:44:20.904Z,8.05
2022-09-17T02:47:25.046Z,19.15
2022-09-17T02:50:30.942Z,11.13
2022-09-17T02:53:44.714Z,10.10
2022-09-17T02:56:45.869Z,12.63
2022-09-17T02:59:59.490Z,8.98
2022-09-17T03:02:56.490Z,12.45
2022-09-17T03:05:42.835Z,13.60
2022-09-17T03:08:31.078Z,7.28
2022-09-17T03:11:16.955Z,12.57
2022-09-17T03:14:02.797Z,5.65
2022-09-17T03:16:48.708Z,11.38
2022-09-17T03:19:34.572Z,4.93
2022-09-17T03:22:20.369Z,7.13
2022-09-17T03:25:06.701Z,7.95
2022-09-17T03:27:52.683Z,5.22
2022-09-17T03:30:38.761Z,10.25
2022-09-17T03:33:24.940Z,6.15
2022-09-17T03:36:10.765Z,6.88
2022-09-17T03:38:58.628Z,10.90
2022-09-17T03:41:44.597Z,7.07
2022-09-17T03:44:30.367Z,6.28
2022-09-17T03:47:17.059Z,8.85
2022-09-17T03:50:03.518Z,14.95
2022-09-17T03:52:49.294Z,8.98
2022-09-17T03:55:38.500Z,8.80
2022-09-17T03:58:24.673Z,10.48
2022-09-17T04:01:10.637Z,13.70
2022-09-17T04:03:57.423Z,11.90
2022-09-17T04:06:43.706Z,10.60
2022-09-17T04:09:30.047Z,15.07
2022-09-17T04:12:15.893Z,6.80
2022-09-17T04:15:01.667Z,11.60
2022-09-17T04:17:47.653Z,13.63
2022-09-17T04:20:33.926Z,13.35
2022-09-17T04:23:19.672Z,13.35
2022-09-17T04:26:05.877Z,13.15
2022-09-17T04:28:51.985Z,15.18
2022-09-17T04:31:37.995Z,12.85
2022-09-17T04:34:23.959Z,12.05
2022-09-17T04:37:09.874Z,9.35
2022-09-17T04:39:55.922Z,10.63
2022-09-17T04:42:42.129Z,17.00
2022-09-17T04:45:27.979Z,8.20
2022-09-17T04:48:13.968Z,10.25
2022-09-17T04:51:00.134Z,11.40
2022-09-17T04:53:46.032Z,13.45
2022-09-17T04:56:31.907Z,7.25
2022-09-17T04:59:18.021Z,17.13
2022-09-17T05:02:04.345Z,8.23
2022-09-17T05:04:50.750Z,11.45
2022-09-17T05:07:38.885Z,7.32
2022-09-17T05:10:25.500Z,15.68
2022-09-17T05:13:11.740Z,9.77
2022-09-17T05:15:57.650Z,7.65
2022-09-17T05:18:43.646Z,8.70
2022-09-17T05:21:30.029Z,14.68
2022-09-17T05:24:15.972Z,9.43
2022-09-17T05:27:01.966Z,10.10
2022-09-17T05:29:48.052Z,10.48
2022-09-17T05:32:35.155Z,7.72
2022-09-17T05:35:21.090Z,10.55
2022-09-17T05:38:09.639Z,9.50
2022-09-17T05:40:55.667Z,7.65
2022-09-17T05:43:43.780Z,9.30
2022-09-17T05:46:29.866Z,9.23
2022-09-17T05:49:16.151Z,9.10
2022-09-17T05:52:03.656Z,7.30
2022-09-17T05:54:49.952Z,13.00
2022-09-17T05:57:35.692Z,15.80
2022-09-17T06:00:21.650Z,13.80
2022-09-17T06:03:09.277Z,10.13
2022-09-17T06:05:56.947Z,9.60
2022-09-17T06:08:43.131Z,6.90
2022-09-17T06:11:29.107Z,14.65
2022-09-17T06:14:15.609Z,64.80
2022-09-17T06:17:01.593Z,14.98
2022-09-17T06:19:47.532Z,19.23
2022-09-17T06:22:33.701Z,13.48
2022-09-17T06:25:19.892Z,21.60
2022-09-17T06:28:05.972Z,15.10
2022-09-17T06:30:54.575Z,13.60
2022-09-17T06:33:41.116Z,12.32
2022-09-17T06:36:27.312Z,14.65
2022-09-17T06:39:13.337Z,12.45
2022-09-17T06:41:59.613Z,8.35
2022-09-17T06:44:47.934Z,10.43
2022-09-17T06:47:33.729Z,6.82
2022-09-17T06:50:20.015Z,6.00
2022-09-17T06:53:06.092Z,9.20
2022-09-17T06:55:51.886Z,9.68
2022-09-17T06:58:38.325Z,7.65
2022-09-17T07:01:24.212Z,9.90
2022-09-17T07:04:10.174Z,10.68
2022-09-17T07:06:56.137Z,6.43
2022-09-17T07:09:42.272Z,11.57
2022-09-17T07:12:28.423Z,8.75
2022-09-17T07:15:15.873Z,8.23
2022-09-17T07:18:08.608Z,12.80
2022-09-17T07:21:02.613Z,14.43
2022-09-17T07:23:48.714Z,13.70
2022-09-17T07:26:34.796Z,7.75
2022-09-17T07:29:21.482Z,7.20
2022-09-17T07:32:07.933Z,10.10
2022-09-17T07:34:53.974Z,11.55
2022-09-17T07:37:40.149Z,9.20
2022-09-17T07:40:26.210Z,14.48
2022-09-17T07:43:12.194Z,13.98
2022-09-17T07:45:59.171Z,9.48
2022-09-17T07:48:46.812Z,10.90
2022-09-17T07:51:32.534Z,13.98
2022-09-17T07:54:19.254Z,9.63
2022-09-17T07:57:05.794Z,13.80
2022-09-17T07:59:52.014Z,11.00
2022-09-17T08:02:38.009Z,9.73
2022-09-17T08:05:24.977Z,15.30
2022-09-17T08:08:10.971Z,14.63
2022-09-17T08:11:00.591Z,8.55
2022-09-17T08:13:51.182Z,6.03
2022-09-17T08:16:37.192Z,10.90
2022-09-17T08:19:23.105Z,10.68
2022-09-17T08:22:08.816Z,9.80
2022-09-17T08:24:54.711Z,9.75
2022-09-17T08:27:40.843Z,9.70
2022-09-17T08:30:26.694Z,10.15
2022-09-17T08:33:12.621Z,8.93
2022-09-17T08:36:01.276Z,7.13
2022-09-17T08:38:47.291Z,5.40
2022-09-17T08:42:02.452Z,9.30
2022-09-17T08:44:51.846Z,3.80
2022-09-17T08:47:40.942Z,11.50
2022-09-17T08:50:31.170Z,8.07
2022-09-17T08:53:32.343Z,10.35
2022-09-17T08:56:19.413Z,7.80
2022-09-17T08:59:48.217Z,5.65
2022-09-17T09:02:52.852Z,10.50
2022-09-17T09:05:46.133Z,8.15
2022-09-17T09:08:43.664Z,7.05
2022-09-17T09:11:31.015Z,10.13
2022-09-17T09:14:24.535Z,17.95
2022-09-17T09:17:11.058Z,18.52
2022-09-17T09:19:58.022Z,23.60
2022-09-17T09:22:50.827Z,21.60
2022-09-17T09:25:43.174Z,23.25
2022-09-17T09:28:35.476Z,28.92
2022-09-17T09:31:47.483Z,14.77
2022-09-17T09:34:34.837Z,18.73
2022-09-17T09:37:26.935Z,18.27
2022-09-17T09:40:36.659Z,11.93
2022-09-17T09:43:46.577Z,6.93
2022-09-17T09:46:48.338Z,6.50
2022-09-17T09:49:36.631Z,7.32
2022-09-17T09:52:39.025Z,7.90
2022-09-17T09:58:41.736Z,9.38
2022-09-17T10:01:29.176Z,9.18
2022-09-17T10:04:35.184Z,5.75
2022-09-17T10:07:21.247Z,4.50
2022-09-17T10:10:10.924Z,7.63
2022-09-17T10:13:07.436Z,12.63
2022-09-17T10:15:53.504Z,12.95
2022-09-17T10:18:39.836Z,14.55
2022-09-17T10:21:39.777Z,12.25
2022-09-17T10:24:27.866Z,11.07
2022-09-17T10:27:16.945Z,13.13
2022-09-17T10:30:09.076Z,22.85
2022-09-17T10:33:12.096Z,19.88
2022-09-17T10:36:04.534Z,12.10
2022-09-17T10:38:50.453Z,25.77
2022-09-17T10:41:36.289Z,41.08
2022-09-17T10:44:24.334Z,41.60
2022-09-17T10:47:31.178Z,27.65
2022-09-17T10:50:19.415Z,10.80
2022-09-17T10:53:07.363Z,19.95
2022-09-17T10:56:14.651Z,14.43
2022-09-17T10:59:09.600Z,16.63
2022-09-17T11:02:14.346Z,19.95
2022-09-17T11:05:03.487Z,9.77
2022-09-17T11:07:57.273Z,11.75
2022-09-17T11:11:01.919Z,9.05
2022-09-17T11:14:09.690Z,10.38
2022-09-17T11:17:17.597Z,7.68
2022-09-17T11:20:34.352Z,8.23
2022-09-17T11:23:26.464Z,8.48
2022-09-17T11:26:21.479Z,9.02
2022-09-17T11:29:41.611Z,10.00
2022-09-17T11:32:52.128Z,5.57
2022-09-17T11:35:46.895Z,9.05
2022-09-17T11:38:44.026Z,4.60
2022-09-17T11:41:42.665Z,7.18
2022-09-17T11:44:33.651Z,9.07
2022-09-17T11:47:24.243Z,9.20
2022-09-17T11:51:12.106Z,7.28
2022-09-17T11:54:24.186Z,6.10
2022-09-17T11:57:27.942Z,10.82
2022-09-17T12:00:20.010Z,9.70
2022-09-17T12:03:15.939Z,10.27
2022-09-17T12:06:13.444Z,9.55
2022-09-17T12:09:03.920Z,12.45
2022-09-17T12:11:56.313Z,9.65
2022-09-17T12:14:54.193Z,8.20
2022-09-17T12:18:32.109Z,11.05
2022-09-17T12:21:23.230Z,11.75
2022-09-17T12:24:26.488Z,8.77
2022-09-17T12:27:15.784Z,11.90
2022-09-17T12:30:20.527Z,11.68
2022-09-17T12:33:14.373Z,16.75
2022-09-17T12:36:19.676Z,15.07
2022-09-17T12:39:54.968Z,16.08
2022-09-17T12:42:47.853Z,18.70
2022-09-17T12:46:15.349Z,16.27
2022-09-17T12:49:23.405Z,12.43
2022-09-17T12:52:15.505Z,15.68
2022-09-17T12:55:01.299Z,13.02
2022-09-17T12:58:05.434Z,14.18
2022-09-17T13:01:02.147Z,14.95
2022-09-17T13:03:56.524Z,14.25
2022-09-17T13:07:06.536Z,12.93
2022-09-17T13:10:12.836Z,17.58
2022-09-17T13:13:07.991Z,12.95
2022-09-17T13:15:57.975Z,13.27
2022-09-17T13:19:20.355Z,16.02
2022-09-17T13:22:19.649Z,7.70
2022-09-17T13:25:09.054Z,17.20
2022-09-17T13:28:24.689Z,13.18
2022-09-17T13:31:11.962Z,22.30
2022-09-17T15:26:29.235Z,7.47
2022-09-17T15:29:15.680Z,7.05
2022-09-17T15:32:06.378Z,8.75
2022-09-17T15:35:15.615Z,9.75
2022-09-17T15:38:22.304Z,14.40
2022-09-17T15:41:27.801Z,7.07
2022-09-17T15:44:30.442Z,9.45
2022-09-17T15:47:47.748Z,16.08
2022-09-17T15:50:35.785Z,7.55
2022-09-17T15:53:32.645Z,10.95
2022-09-17T15:56:21.986Z,10.13
2022-09-17T15:59:32.012Z,10.18
2022-09-17T16:02:30.461Z,9.20
2022-09-17T16:05:19.202Z,5.45
2022-09-17T16:08:19.524Z,8.13
2022-09-17T16:11:05.763Z,13.38
2022-09-17T16:13:55.893Z,10.80
2022-09-17T16:16:42.051Z,8.10
2022-09-17T16:19:27.861Z,8.10
2022-09-17T16:22:13.834Z,9.20
2022-09-17T16:24:59.710Z,6.63
2022-09-17T16:28:00.065Z,3.92
2022-09-17T16:30:51.750Z,8.07
2022-09-17T16:33:37.814Z,10.88
2022-09-17T16:36:23.700Z,6.90
2022-09-17T16:39:09.592Z,8.77
2022-09-17T16:41:55.542Z,7.70
2022-09-17T16:44:41.633Z,6.00
2022-09-17T16:47:27.600Z,19.88
2022-09-17T16:50:15.636Z,10.45
2022-09-17T16:53:05.403Z,15.40
2022-09-17T16:55:51.424Z,19.50
2022-09-17T16:58:38.863Z,22.95
2022-09-17T17:01:25.066Z,16.90
2022-09-17T17:04:11.069Z,13.00
2022-09-17T17:06:57.088Z,17.08
2022-09-17T17:09:42.854Z,17.60
2022-09-17T17:12:28.819Z,16.98
2022-09-17T17:15:14.993Z,10.45
2022-09-17T17:18:00.967Z,11.63
2022-09-17T17:20:48.711Z,9.23
2022-09-17T17:23:35.862Z,13.80
2022-09-17T17:26:21.929Z,11.43
2022-09-17T17:29:09.114Z,9.40
2022-09-17T17:31:55.257Z,11.38
2022-09-17T17:34:41.446Z,11.55
2022-09-17T17:37:27.516Z,15.20
2022-09-17T17:40:13.766Z,33.60
2022-09-17T17:42:59.675Z,19.65
2022-09-17T17:45:45.648Z,21.25
2022-09-17T17:48:31.558Z,18.63
2022-09-17T17:51:23.873Z,32.28
2022-09-17T17:54:10.117Z,30.45
2022-09-17T17:56:56.447Z,24.95
2022-09-17T17:59:42.499Z,25.13
2022-09-17T18:02:32.525Z,29.40
2022-09-17T18:05:19.040Z,34.47
2022-09-17T18:08:04.766Z,26.85
2022-09-17T18:10:55.448Z,32.38
2022-09-17T18:13:41.742Z,34.55
2022-09-17T18:16:29.258Z,18.90
2022-09-17T18:19:15.534Z,17.05
2022-09-17T18:22:02.109Z,21.05
2022-09-17T18:24:48.218Z,30.88
2022-09-17T18:27:34.011Z,26.63
2022-09-17T18:30:20.084Z,23.70
2022-09-17T18:33:06.366Z,25.35
2022-09-17T18:35:56.997Z,20.27
2022-09-17T18:38:43.150Z,21.75
2022-09-17T18:41:29.795Z,13.80
2022-09-17T18:44:16.081Z,13.35
2022-09-17T18:47:02.802Z,11.55
2022-09-17T18:49:48.881Z,10.00
2022-09-17T18:52:35.264Z,15.25
2022-09-17T18:55:21.774Z,18.70
2022-09-17T18:58:07.504Z,12.35
2022-09-17T19:00:53.559Z,13.82
2022-09-17T19:03:40.287Z,8.85
2022-09-17T19:06:27.730Z,8.88
2022-09-17T19:09:13.783Z,9.13
2022-09-17T19:12:00.112Z,12.88
2022-09-17T19:14:46.098Z,14.63
2022-09-17T19:17:31.992Z,7.90
2022-09-17T19:20:19.920Z,16.25
2022-09-17T19:23:07.119Z,12.50
2022-09-17T19:25:52.945Z,15.05
2022-09-17T19:28:38.981Z,17.02
2022-09-17T19:31:25.105Z,13.68
2022-09-17T19:34:11.333Z,14.45
2022-09-17T19:36:57.146Z,13.75
2022-09-17T19:39:43.601Z,10.25
2022-09-17T19:42:29.947Z,10.35
2022-09-17T19:45:17.022Z,9.10
2022-09-17T19:48:05.916Z,11.10
2022-09-17T19:50:53.523Z,12.23
2022-09-17T19:53:39.353Z,10.93
2022-09-17T19:56:27.120Z,13.80
2022-09-17T19:59:12.956Z,14.43
2022-09-17T20:01:59.207Z,10.90
2022-09-17T20:04:45.394Z,14.00
2022-09-17T20:07:31.676Z,9.98
2022-09-17T20:10:17.712Z,11.15
2022-09-17T20:13:04.199Z,8.95
2022-09-17T20:15:50.291Z,14.40
2022-09-17T20:18:36.760Z,14.27
2022-09-17T20:21:30.438Z,17.50
2022-09-17T20:24:16.439Z,14.90
2022-09-17T20:27:02.311Z,14.15
2022-09-17T20:29:48.258Z,9.15
2022-09-17T20:32:34.217Z,11.65
2022-09-17T20:35:20.037Z,13.25
2022-09-17T20:38:59.989Z,17.98
2022-09-17T20:41:14.140Z,9.75
2022-09-17T20:44:00.146Z,8.70
2022-09-17T20:46:46.609Z,9.32
2022-09-17T20:49:33.721Z,5.30
2022-09-17T20:52:21.262Z,7.13
2022-09-17T20:55:08.069Z,8.00
2022-09-17T20:57:54.309Z,5.15
2022-09-17T21:00:42.686Z,3.15
2022-09-17T21:03:30.070Z,2.42
2022-09-17T21:06:24.329Z,3.85
2022-09-17T21:09:12.395Z,3.10
2022-09-17T21:11:58.544Z,8.15
2022-09-17T21:14:44.490Z,2.88
2022-09-17T21:17:31.874Z,0.70
2022-09-17T21:20:17.774Z,2.40
2022-09-17T21:23:03.685Z,1.23
2022-09-17T21:25:49.781Z,0.98
2022-09-17T21:28:36.376Z,1.85
2022-09-17T21:31:32.090Z,1.10
2022-09-17T21:34:18.633Z,1.05
2022-09-17T21:37:05.621Z,2.88
2022-09-17T21:39:51.895Z,1.25
2022-09-17T21:42:38.928Z,2.58
2022-09-17T21:45:25.049Z,0.43
2022-09-17T21:48:10.926Z,2.72
2022-09-17T21:51:11.153Z,4.20
2022-09-17T21:53:59.468Z,5.03
2022-09-17T21:56:45.995Z,1.10
2022-09-17T21:59:32.255Z,1.85
2022-09-17T22:02:18.560Z,3.72
2022-09-17T22:05:05.047Z,5.43
2022-09-17T22:07:51.337Z,0.25
2022-09-17T22:10:37.159Z,0.30
2022-09-17T22:13:23.234Z,0.35
2022-09-17T22:16:10.187Z,0.88
2022-09-17T22:18:56.562Z,0.28
2022-09-17T22:21:46.041Z,0.63
2022-09-17T22:24:32.066Z,1.55
2022-09-17T22:27:17.853Z,1.98
2022-09-17T22:30:04.001Z,0.10
2022-09-17T22:32:50.062Z,0.47
2022-09-17T22:35:36.096Z,0.20
2022-09-17T22:38:22.307Z,0.80
2022-09-17T22:41:12.674Z,5.78
2022-09-17T22:44:04.654Z,1.65
2022-09-17T22:46:51.710Z,0.45
2022-09-17T22:49:38.089Z,0.95
2022-09-17T22:52:24.130Z,0.20
2022-09-17T22:55:10.534Z,1.63
2022-09-17T22:57:56.392Z,0.85
2022-09-17T23:00:42.473Z,0.20
2022-09-17T23:03:28.953Z,2.45
2022-09-17T23:06:17.698Z,0.95
2022-09-17T23:09:04.089Z,0.32
2022-09-17T23:11:50.304Z,0.45
2022-09-17T23:14:36.256Z,1.48
2022-09-17T23:17:25.964Z,0.30
2022-09-17T23:20:15.474Z,2.83
2022-09-17T23:23:01.301Z,0.22
2022-09-17T23:25:47.529Z,0.50
2022-09-17T23:28:37.325Z,0.20
2022-09-17T23:31:26.143Z,1.75
2022-09-17T23:34:12.248Z,0.63
2022-09-17T23:36:58.372Z,1.25
2022-09-17T23:39:44.233Z,1.17
2022-09-17T23:42:34.080Z,0.20
2022-09-17T23:45:20.048Z,0.35
2022-09-17T23:48:05.888Z,0.40
2022-09-17T23:50:51.878Z,1.17
2022-09-17T23:53:38.748Z,1.95
2022-09-17T23:56:26.328Z,0.30
2022-09-17T23:59:12.755Z,2.60
